Time;durP1;ratioP1;P1;durP2;ratioP2;P2;SDS_P1;SDS_P2;PMS_P1;PMS_P2;Temp;Humidity;BMP_temperature;BMP_pressure;BME280_temperature;BME280_humidity;BME280_pressure;Samples;Min_cycle;Max_cycle;Signal;HPM_P1;HPM_P2
2023/12/24 00:01:05;;;;;;;2.17;1.08;;;8.50;99.90;;;;;;5013961;28;20052;-50
2023/12/24 00:03:33;;;;;;;2.60;1.40;;;8.50;99.90;;;;;;5017479;28;20054;-57
2023/12/24 00:06:00;;;;;;;1.85;1.15;;;8.50;99.90;;;;;;5017437;28;20033;-58
2023/12/24 00:08:31;;;;;;;2.65;1.40;;;8.50;99.90;;;;;;5012176;28;20133;-49
2023/12/24 00:10:58;;;;;;;2.22;1.38;;;8.50;99.90;;;;;;5012994;28;20053;-50
2023/12/24 00:13:26;;;;;;;2.80;1.20;;;8.50;99.90;;;;;;5011505;28;20244;-48
2023/12/24 00:15:53;;;;;;;3.17;1.30;;;8.40;99.90;;;;;;5014410;28;20489;-55
2023/12/24 00:18:19;;;;;;;3.45;1.40;;;8.40;99.90;;;;;;5015373;28;20070;-52
2023/12/24 00:20:47;;;;;;;3.70;1.33;;;8.40;99.90;;;;;;5015591;28;20138;-53
2023/12/24 00:23:14;;;;;;;3.65;1.40;;;8.50;99.90;;;;;;5011652;28;20046;-50
2023/12/24 00:25:41;;;;;;;3.05;1.20;;;8.50;99.90;;;;;;5009937;28;20059;-48
2023/12/24 00:28:08;;;;;;;2.08;1.20;;;8.50;99.90;;;;;;5014414;28;20046;-51
2023/12/24 00:30:36;;;;;;;3.25;1.50;;;8.50;99.90;;;;;;5016182;28;20127;-52
2023/12/24 00:33:03;;;;;;;3.90;1.42;;;8.50;99.90;;;;;;5007112;28;20069;-52
2023/12/24 00:35:32;;;;;;;6.30;1.40;;;8.50;99.90;;;;;;5017425;28;20049;-49
2023/12/24 00:37:59;;;;;;;3.38;1.58;;;8.50;99.90;;;;;;5013757;28;20415;-52
2023/12/24 00:40:26;;;;;;;2.90;1.30;;;8.50;99.90;;;;;;5012723;28;20034;-51
2023/12/24 00:42:54;;;;;;;3.03;1.60;;;8.60;99.90;;;;;;5018800;28;20512;-53
2023/12/24 00:45:21;;;;;;;3.28;1.50;;;8.60;99.90;;;;;;5016504;28;20503;-46
2023/12/24 00:47:48;;;;;;;6.38;1.60;;;8.60;99.90;;;;;;5001717;28;20414;-48
2023/12/24 00:50:16;;;;;;;3.10;1.55;;;8.50;99.90;;;;;;5008702;28;20053;-50
2023/12/24 00:52:43;;;;;;;3.60;1.60;;;8.50;99.90;;;;;;5017229;28;20113;-47
2023/12/24 00:55:10;;;;;;;3.95;2.00;;;8.50;99.90;;;;;;5011595;28;20054;-46
2023/12/24 00:57:37;;;;;;;3.35;1.60;;;8.60;99.90;;;;;;5012015;28;20120;-53
2023/12/24 01:00:05;;;;;;;3.28;1.60;;;8.60;99.90;;;;;;5017120;28;20057;-47
2023/12/24 01:02:32;;;;;;;2.00;1.30;;;8.60;99.90;;;;;;5014174;28;20423;-50
2023/12/24 01:05:00;;;;;;;4.30;1.60;;;8.60;99.90;;;;;;5010890;28;20053;-56
2023/12/24 01:07:27;;;;;;;4.85;1.25;;;8.60;99.90;;;;;;5011229;28;20550;-46
2023/12/24 01:09:54;;;;;;;2.95;1.30;;;8.70;99.90;;;;;;5014613;28;20573;-50
2023/12/24 01:12:21;;;;;;;2.47;1.30;;;8.70;99.90;;;;;;5015785;28;20060;-49
2023/12/24 01:14:48;;;;;;;2.67;1.42;;;8.70;99.90;;;;;;5013620;28;20059;-49
2023/12/24 01:17:15;;;;;;;2.70;1.60;;;8.60;99.90;;;;;;5011968;28;20064;-49
2023/12/24 01:19:43;;;;;;;4.07;1.40;;;8.60;99.90;;;;;;5008931;28;20046;-52
2023/12/24 01:22:11;;;;;;;3.42;1.50;;;8.60;99.90;;;;;;5012104;28;20054;-50
2023/12/24 01:24:39;;;;;;;2.25;1.33;;;8.60;99.90;;;;;;5014865;28;20102;-52
2023/12/24 01:27:06;;;;;;;3.80;1.50;;;8.60;99.90;;;;;;5015201;28;20133;-53
2023/12/24 01:29:33;;;;;;;2.17;1.40;;;8.60;99.90;;;;;;5012485;28;20034;-52
2023/12/24 01:32:01;;;;;;;2.85;1.30;;;8.50;99.90;;;;;;5014622;28;20041;-46
2023/12/24 01:34:28;;;;;;;3.83;1.60;;;8.50;99.90;;;;;;5008576;28;20533;-47
2023/12/24 01:36:55;;;;;;;2.53;1.50;;;8.50;99.90;;;;;;5010471;28;20046;-47
2023/12/24 01:39:22;;;;;;;4.85;2.00;;;8.60;99.90;;;;;;5033751;28;20042;-51
2023/12/24 01:41:49;;;;;;;3.50;1.75;;;8.50;99.90;;;;;;5015091;28;20328;-52
2023/12/24 01:44:16;;;;;;;3.95;1.55;;;8.60;99.90;;;;;;5012486;28;20077;-48
2023/12/24 01:46:45;;;;;;;4.20;1.52;;;8.60;99.90;;;;;;5007596;28;20038;-52
2023/12/24 01:49:15;;;;;;;3.45;1.48;;;8.50;99.90;;;;;;5007667;28;20046;-51
2023/12/24 01:51:42;;;;;;;3.22;1.55;;;8.50;99.90;;;;;;5017469;28;20449;-49
2023/12/24 01:54:10;;;;;;;2.92;1.73;;;8.50;99.90;;;;;;5011951;28;20081;-52
2023/12/24 01:56:46;;;;;;;2.85;1.60;;;8.50;99.90;;;;;;5014971;28;20459;-55
2023/12/24 01:59:14;;;;;;;2.70;1.45;;;8.50;99.90;;;;;;5018407;28;20092;-50
2023/12/24 02:01:42;;;;;;;3.28;1.45;;;8.60;99.90;;;;;;5009839;28;20124;-51
2023/12/24 02:04:09;;;;;;;5.18;1.58;;;8.50;99.90;;;;;;5015235;28;20232;-47
2023/12/24 02:06:36;;;;;;;3.92;1.50;;;8.50;99.90;;;;;;5040389;28;20138;-53
2023/12/24 02:09:03;;;;;;;2.97;1.50;;;8.40;99.90;;;;;;5010843;28;20177;-51
2023/12/24 02:11:30;;;;;;;2.95;1.60;;;8.40;99.90;;;;;;5018975;28;20089;-57
2023/12/24 02:13:57;;;;;;;2.90;1.40;;;8.40;99.90;;;;;;5015342;28;20041;-59
2023/12/24 02:16:30;;;;;;;2.85;1.50;;;8.40;99.90;;;;;;5016641;28;20054;-53
2023/12/24 02:18:57;;;;;;;2.05;1.27;;;8.40;99.90;;;;;;5015737;28;20049;-56
2023/12/24 02:21:24;;;;;;;3.47;1.35;;;8.50;99.90;;;;;;5041299;28;20365;-54
2023/12/24 02:23:51;;;;;;;2.83;1.50;;;8.50;99.90;;;;;;5018940;28;20196;-58
2023/12/24 02:26:34;;;;;;;3.67;1.70;;;8.50;99.90;;;;;;5011136;28;20465;-57
2023/12/24 02:29:18;;;;;;;3.45;1.50;;;8.50;99.90;;;;;;5016464;28;20039;-54
2023/12/24 02:31:47;;;;;;;3.83;1.60;;;8.50;99.90;;;;;;5010154;28;20065;-59
2023/12/24 02:34:17;;;;;;;1.95;1.27;;;8.60;99.90;;;;;;5012365;28;20046;-53
2023/12/24 02:36:48;;;;;;;2.03;1.23;;;8.60;99.90;;;;;;5015867;28;20144;-56
2023/12/24 02:39:15;;;;;;;3.10;1.27;;;8.60;99.90;;;;;;5014974;28;20049;-57
2023/12/24 02:41:42;;;;;;;2.72;1.30;;;8.60;99.90;;;;;;5012539;28;20060;-49
2023/12/24 02:44:10;;;;;;;3.13;1.40;;;8.70;99.90;;;;;;5014249;28;20724;-55
2023/12/24 02:46:37;;;;;;;4.00;1.30;;;8.70;99.90;;;;;;5015758;28;20041;-55
2023/12/24 02:49:04;;;;;;;2.63;1.38;;;8.70;99.90;;;;;;5015961;28;20042;-57
2023/12/24 02:51:31;;;;;;;2.40;1.55;;;8.60;99.90;;;;;;5019597;28;20447;-58
2023/12/24 02:53:58;;;;;;;2.25;1.33;;;8.70;99.90;;;;;;5013751;28;20133;-54
2023/12/24 02:56:25;;;;;;;3.38;1.45;;;8.60;99.90;;;;;;5038423;28;20084;-56
2023/12/24 02:58:52;;;;;;;3.13;1.38;;;8.70;99.90;;;;;;5018233;28;20046;-53
2023/12/24 03:01:19;;;;;;;3.95;1.48;;;8.70;99.90;;;;;;5014985;28;20090;-49
2023/12/24 03:03:46;;;;;;;3.67;1.55;;;8.70;99.90;;;;;;5018325;28;20057;-52
2023/12/24 03:06:13;;;;;;;2.42;1.50;;;8.70;99.90;;;;;;5015390;28;20057;-47
2023/12/24 03:08:40;;;;;;;4.07;1.58;;;8.60;99.90;;;;;;5013795;28;20519;-56
2023/12/24 03:11:08;;;;;;;3.13;1.58;;;8.60;99.90;;;;;;5014314;28;20124;-49
2023/12/24 03:13:35;;;;;;;5.60;1.60;;;8.60;99.90;;;;;;5017398;28;20530;-54
2023/12/24 03:16:01;;;;;;;3.20;1.67;;;8.60;99.90;;;;;;5015958;28;20550;-44
2023/12/24 03:18:28;;;;;;;7.43;1.75;;;8.60;99.90;;;;;;5015235;28;20071;-48
2023/12/24 03:20:56;;;;;;;3.97;1.73;;;8.60;99.90;;;;;;5014206;28;20416;-54
2023/12/24 03:23:23;;;;;;;2.83;1.50;;;8.60;99.90;;;;;;5012321;28;20769;-47
2023/12/24 03:25:50;;;;;;;5.40;1.80;;;8.60;99.90;;;;;;5018817;28;20318;-47
2023/12/24 03:28:17;;;;;;;3.22;1.70;;;8.60;99.90;;;;;;5011875;28;20411;-56
2023/12/24 03:30:45;;;;;;;3.88;1.90;;;8.60;99.90;;;;;;5016208;28;20042;-49
2023/12/24 03:33:12;;;;;;;3.05;1.75;;;8.60;99.90;;;;;;5013592;28;20046;-49
2023/12/24 03:35:39;;;;;;;3.08;1.73;;;8.60;99.90;;;;;;5016321;28;20132;-51
2023/12/24 03:38:07;;;;;;;4.70;1.75;;;8.60;99.90;;;;;;5017836;28;20410;-48
2023/12/24 03:40:34;;;;;;;5.72;1.83;;;8.60;99.90;;;;;;5016566;28;20444;-51
2023/12/24 03:43:01;;;;;;;8.35;2.08;;;8.60;99.90;;;;;;5016125;28;20047;-50
2023/12/24 03:45:27;;;;;;;3.97;1.73;;;8.70;99.90;;;;;;5014730;28;20100;-54
2023/12/24 03:47:54;;;;;;;3.25;1.60;;;8.70;99.90;;;;;;5014422;28;20103;-50
2023/12/24 03:50:22;;;;;;;2.22;1.30;;;8.70;99.90;;;;;;5013046;28;20042;-51
2023/12/24 03:52:48;;;;;;;2.70;1.42;;;8.70;99.90;;;;;;5018564;28;20461;-56
2023/12/24 03:55:16;;;;;;;2.72;1.35;;;8.60;99.90;;;;;;5005655;28;20049;-52
2023/12/24 03:57:43;;;;;;;2.72;1.50;;;8.70;99.90;;;;;;5011745;28;20050;-55
2023/12/24 04:00:10;;;;;;;3.60;1.30;;;8.70;99.90;;;;;;5015487;28;20069;-59
2023/12/24 04:02:37;;;;;;;2.40;1.30;;;8.70;99.90;;;;;;5015223;28;20048;-54
2023/12/24 04:05:04;;;;;;;2.88;1.40;;;8.70;99.90;;;;;;5011632;28;20426;-43
2023/12/24 04:07:32;;;;;;;3.50;1.52;;;8.70;99.90;;;;;;5013841;28;20065;-56
2023/12/24 04:09:59;;;;;;;2.70;1.30;;;8.80;99.90;;;;;;5015816;28;20041;-55
2023/12/24 04:12:26;;;;;;;2.33;1.40;;;8.80;99.90;;;;;;5007928;28;20123;-52
2023/12/24 04:14:53;;;;;;;4.78;1.40;;;8.70;99.90;;;;;;5014554;28;20122;-54
2023/12/24 04:17:20;;;;;;;2.15;1.33;;;8.80;99.90;;;;;;5013481;28;20073;-53
2023/12/24 04:19:47;;;;;;;3.47;1.20;;;8.70;99.90;;;;;;5015153;28;20046;-55
2023/12/24 04:22:14;;;;;;;1.83;1.20;;;8.70;99.90;;;;;;5013865;28;20104;-48
2023/12/24 04:24:41;;;;;;;2.45;1.58;;;8.70;99.90;;;;;;5014647;28;20419;-53
2023/12/24 04:27:08;;;;;;;3.58;1.20;;;8.70;99.90;;;;;;5014289;28;20045;-47
2023/12/24 04:29:35;;;;;;;3.10;1.30;;;8.70;99.90;;;;;;5015412;28;20084;-52
2023/12/24 04:32:02;;;;;;;1.85;1.05;;;8.70;99.90;;;;;;5015469;28;20068;-50
2023/12/24 04:34:31;;;;;;;4.22;1.30;;;8.70;99.90;;;;;;4994865;28;20073;-51
2023/12/24 04:36:58;;;;;;;2.05;1.00;;;8.70;99.90;;;;;;5007763;28;20045;-55
2023/12/24 04:39:25;;;;;;;2.75;1.30;;;8.70;99.90;;;;;;5038075;28;20541;-54
2023/12/24 04:41:52;;;;;;;1.90;1.15;;;8.70;99.90;;;;;;5013968;28;20679;-55
2023/12/24 04:44:19;;;;;;;2.53;1.23;;;8.70;99.90;;;;;;5013152;28;20046;-57
2023/12/24 04:46:47;;;;;;;3.25;1.02;;;8.70;99.90;;;;;;5014127;28;20517;-57
2023/12/24 04:49:14;;;;;;;1.95;1.15;;;8.70;99.90;;;;;;5012808;28;20137;-52
2023/12/24 04:51:41;;;;;;;1.88;1.15;;;8.70;99.90;;;;;;5037431;28;20381;-47
2023/12/24 04:54:09;;;;;;;3.90;1.13;;;8.70;99.90;;;;;;5010712;28;20129;-54
2023/12/24 04:56:36;;;;;;;2.38;1.00;;;8.70;99.90;;;;;;5014277;28;20049;-52
2023/12/24 04:59:03;;;;;;;1.38;0.90;;;8.70;99.90;;;;;;5009778;28;20048;-54
2023/12/24 05:01:30;;;;;;;1.70;0.93;;;8.70;99.90;;;;;;5015579;28;20132;-47
2023/12/24 05:03:57;;;;;;;1.95;1.20;;;8.70;99.90;;;;;;5015290;28;20051;-53
2023/12/24 05:06:28;;;;;;;2.72;1.23;;;8.60;99.90;;;;;;5015834;28;20122;-51
2023/12/24 05:08:55;;;;;;;2.15;1.10;;;8.70;99.90;;;;;;5012713;28;20572;-56
2023/12/24 05:11:22;;;;;;;4.13;1.55;;;8.60;99.90;;;;;;5012954;28;20129;-45
2023/12/24 05:13:49;;;;;;;2.70;1.30;;;8.60;99.90;;;;;;5014664;28;20494;-56
2023/12/24 05:16:16;;;;;;;2.10;1.23;;;8.60;99.90;;;;;;5011941;28;20073;-53
2023/12/24 05:18:45;;;;;;;1.73;1.20;;;8.60;99.90;;;;;;5037094;28;20060;-49
2023/12/24 05:21:13;;;;;;;1.63;1.15;;;8.60;99.90;;;;;;5009232;28;20042;-51
2023/12/24 05:23:40;;;;;;;1.92;1.20;;;8.60;99.90;;;;;;5010093;28;20515;-58
2023/12/24 05:26:07;;;;;;;2.20;1.20;;;8.60;99.90;;;;;;5010907;28;20124;-55
2023/12/24 05:28:33;;;;;;;3.00;1.13;;;8.60;99.90;;;;;;5014237;28;20038;-51
2023/12/24 05:31:00;;;;;;;2.08;1.35;;;8.60;99.90;;;;;;5008208;28;20128;-57
2023/12/24 05:33:27;;;;;;;3.40;1.52;;;8.60;99.90;;;;;;5012652;28;20120;-56
2023/12/24 05:35:56;;;;;;;1.88;1.20;;;8.60;99.90;;;;;;5012660;28;20056;-58
2023/12/24 05:38:23;;;;;;;3.03;1.40;;;8.60;99.90;;;;;;5012226;28;20586;-47
2023/12/24 05:40:50;;;;;;;2.95;1.48;;;8.60;99.90;;;;;;5011444;28;20122;-55
2023/12/24 05:43:17;;;;;;;2.65;1.45;;;8.60;99.90;;;;;;5008839;28;20057;-57
2023/12/24 05:45:44;;;;;;;2.38;1.40;;;8.60;99.90;;;;;;5008809;28;20038;-51
2023/12/24 05:48:11;;;;;;;3.10;1.40;;;8.60;99.90;;;;;;5009476;28;20042;-56
2023/12/24 05:50:39;;;;;;;2.67;1.25;;;8.60;99.90;;;;;;5008105;28;20498;-49
2023/12/24 05:53:06;;;;;;;2.38;1.38;;;8.60;99.90;;;;;;5008699;28;20693;-47
2023/12/24 05:55:33;;;;;;;1.95;1.25;;;8.60;99.90;;;;;;5007714;28;20053;-52
2023/12/24 05:58:00;;;;;;;2.00;1.30;;;8.60;99.90;;;;;;5005264;28;20452;-46
2023/12/24 06:00:27;;;;;;;2.25;1.30;;;8.70;99.90;;;;;;5003107;28;20458;-56
2023/12/24 06:02:53;;;;;;;1.88;1.42;;;8.60;99.90;;;;;;5008283;28;20439;-45
2023/12/24 06:05:21;;;;;;;2.05;1.40;;;8.60;99.90;;;;;;5007147;28;20044;-55
2023/12/24 06:07:48;;;;;;;2.45;1.20;;;8.60;99.90;;;;;;5008506;28;20030;-50
2023/12/24 06:10:15;;;;;;;2.22;1.48;;;8.70;99.90;;;;;;5007714;28;20251;-52
2023/12/24 06:12:43;;;;;;;3.53;1.42;;;8.60;99.90;;;;;;5004838;28;20096;-53
2023/12/24 06:15:10;;;;;;;1.73;1.20;;;8.70;99.90;;;;;;5004420;28;20058;-51
2023/12/24 06:17:37;;;;;;;3.30;1.50;;;8.60;99.90;;;;;;5012104;28;20057;-52
2023/12/24 06:20:05;;;;;;;1.67;1.02;;;8.70;99.90;;;;;;5014874;28;20155;-57
2023/12/24 06:22:32;;;;;;;2.70;1.10;;;8.70;99.90;;;;;;5009780;28;20065;-50
2023/12/24 06:24:59;;;;;;;3.78;1.10;;;8.60;99.90;;;;;;5008417;28;20042;-56
2023/12/24 06:27:26;;;;;;;2.05;1.00;;;8.70;99.90;;;;;;5010047;28;20144;-56
2023/12/24 06:29:53;;;;;;;3.67;1.20;;;8.60;99.90;;;;;;5013994;28;20076;-58
2023/12/24 06:32:20;;;;;;;2.25;1.00;;;8.50;99.90;;;;;;5013795;28;20073;-56
2023/12/24 06:34:46;;;;;;;3.78;1.13;;;8.50;99.90;;;;;;5007601;28;20410;-49
2023/12/24 06:37:13;;;;;;;2.50;1.35;;;8.50;99.90;;;;;;5012443;28;20307;-51
2023/12/24 06:39:40;;;;;;;2.33;1.13;;;8.40;99.90;;;;;;5014244;28;20421;-49
2023/12/24 06:42:07;;;;;;;1.58;1.20;;;8.50;99.90;;;;;;5012681;28;20057;-53
2023/12/24 06:44:34;;;;;;;3.15;1.10;;;8.40;99.90;;;;;;5010115;28;20033;-53
2023/12/24 06:47:01;;;;;;;2.25;1.00;;;8.40;99.90;;;;;;5008308;28;20042;-52
2023/12/24 06:49:28;;;;;;;4.63;1.20;;;8.30;99.90;;;;;;5006871;28;20034;-55
2023/12/24 06:51:55;;;;;;;3.08;1.35;;;8.20;99.90;;;;;;5010284;28;20476;-51
2023/12/24 06:54:22;;;;;;;2.38;1.30;;;8.20;99.90;;;;;;5006535;28;20495;-49
2023/12/24 06:56:49;;;;;;;2.63;1.10;;;8.20;99.90;;;;;;5013397;28;20474;-55
2023/12/24 06:59:16;;;;;;;2.60;1.30;;;8.10;99.90;;;;;;5010550;28;20052;-53
2023/12/24 07:01:43;;;;;;;3.28;0.98;;;8.10;99.90;;;;;;5006079;28;20034;-46
2023/12/24 07:04:10;;;;;;;2.83;1.00;;;8.00;99.90;;;;;;5008965;28;20061;-50
2023/12/24 07:06:37;;;;;;;2.05;1.10;;;8.10;99.90;;;;;;5008809;28;20041;-51
2023/12/24 07:09:05;;;;;;;2.10;1.00;;;8.00;99.90;;;;;;5010965;28;20048;-50
2023/12/24 07:11:32;;;;;;;1.30;0.80;;;8.00;99.90;;;;;;5012595;28;20046;-52
2023/12/24 07:13:59;;;;;;;2.28;0.98;;;7.90;99.90;;;;;;5010309;28;20040;-51
2023/12/24 07:16:26;;;;;;;2.15;1.00;;;7.90;99.90;;;;;;5013927;28;20045;-53
2023/12/24 07:18:53;;;;;;;1.95;0.85;;;7.90;99.90;;;;;;5013303;28;20095;-52
2023/12/24 07:21:20;;;;;;;1.23;0.80;;;7.90;99.90;;;;;;5002459;28;20459;-51
2023/12/24 07:23:47;;;;;;;2.00;0.95;;;7.90;99.90;;;;;;5012667;28;20121;-51
2023/12/24 07:26:14;;;;;;;1.88;0.95;;;7.90;99.90;;;;;;5008553;28;20038;-49
2023/12/24 07:28:41;;;;;;;1.30;0.98;;;7.90;99.90;;;;;;5013362;28;20539;-53
2023/12/24 07:31:08;;;;;;;1.13;0.70;;;7.90;99.90;;;;;;5006154;28;20126;-57
2023/12/24 07:33:35;;;;;;;1.80;0.90;;;7.90;99.90;;;;;;5008510;28;20054;-53
2023/12/24 07:36:02;;;;;;;1.60;0.77;;;7.90;99.90;;;;;;5010909;28;20495;-49
2023/12/24 07:38:30;;;;;;;1.23;0.80;;;7.90;99.90;;;;;;5012475;28;20053;-55
2023/12/24 07:40:57;;;;;;;1.13;0.80;;;7.90;99.90;;;;;;5012382;28;20065;-53
2023/12/24 07:43:24;;;;;;;2.22;1.00;;;7.90;99.90;;;;;;5007532;28;20050;-53
2023/12/24 07:45:52;;;;;;;2.60;0.70;;;7.80;99.90;;;;;;5014589;28;20588;-47
2023/12/24 07:48:19;;;;;;;2.25;0.95;;;7.90;99.90;;;;;;5006532;28;20069;-48
2023/12/24 07:50:46;;;;;;;1.30;0.70;;;7.90;99.90;;;;;;5007660;28;20080;-52
2023/12/24 07:53:13;;;;;;;1.88;0.90;;;7.90;99.90;;;;;;5007910;28;20525;-50
2023/12/24 07:55:40;;;;;;;2.00;1.00;;;8.00;99.90;;;;;;5011696;28;20037;-53
2023/12/24 07:58:08;;;;;;;1.98;0.93;;;8.00;99.90;;;;;;5007675;28;20038;-50
2023/12/24 08:00:35;;;;;;;1.42;0.73;;;8.00;99.90;;;;;;5012293;28;20050;-52
2023/12/24 08:03:02;;;;;;;1.85;0.90;;;8.10;99.90;;;;;;5011882;28;20394;-48
2023/12/24 08:05:29;;;;;;;0.93;0.70;;;8.00;99.90;;;;;;5011749;28;20407;-55
2023/12/24 08:07:56;;;;;;;1.25;0.80;;;8.00;99.90;;;;;;5003728;28;20042;-53
2023/12/24 08:10:23;;;;;;;1.67;0.90;;;8.00;99.90;;;;;;5011672;28;20153;-55
2023/12/24 08:12:50;;;;;;;2.88;1.25;;;8.10;99.90;;;;;;5008803;28;20046;-51
2023/12/24 08:15:27;;;;;;;1.75;0.82;;;8.00;99.90;;;;;;5013339;28;20057;-52
2023/12/24 08:17:54;;;;;;;2.15;1.00;;;8.10;99.90;;;;;;5010992;28;20510;-51
2023/12/24 08:20:21;;;;;;;1.83;0.90;;;8.10;99.90;;;;;;5007357;28;20430;-54
2023/12/24 08:22:49;;;;;;;2.78;1.00;;;8.10;99.90;;;;;;5010051;28;20048;-52
2023/12/24 08:25:16;;;;;;;2.33;0.80;;;8.10;99.90;;;;;;5011962;28;20049;-54
2023/12/24 08:27:43;;;;;;;1.38;0.80;;;8.00;99.90;;;;;;5007516;28;20593;-53
2023/12/24 08:30:11;;;;;;;1.35;0.90;;;8.00;99.90;;;;;;5007698;28;20158;-54
2023/12/24 08:32:38;;;;;;;1.88;1.00;;;8.00;99.90;;;;;;5007978;28;20052;-52
2023/12/24 08:35:05;;;;;;;2.90;1.08;;;8.00;99.90;;;;;;5009162;28;20466;-51
2023/12/24 08:37:32;;;;;;;1.65;0.85;;;7.90;99.90;;;;;;5009835;28;20543;-54
2023/12/24 08:39:59;;;;;;;2.17;0.90;;;8.00;99.90;;;;;;5008345;28;20042;-54
2023/12/24 08:42:26;;;;;;;3.22;1.48;;;7.90;99.90;;;;;;5006866;28;20069;-53
2023/12/24 08:44:53;;;;;;;1.02;0.73;;;8.00;99.90;;;;;;5007722;28;20040;-48
2023/12/24 08:47:19;;;;;;;2.10;0.90;;;7.90;99.90;;;;;;5004557;28;20056;-49
2023/12/24 08:49:46;;;;;;;1.88;0.80;;;7.90;99.90;;;;;;5013584;28;20151;-52
2023/12/24 08:52:13;;;;;;;4.35;1.92;;;7.80;99.90;;;;;;5007327;28;20379;-48
2023/12/24 08:54:40;;;;;;;2.75;0.90;;;7.90;99.90;;;;;;5009888;28;20037;-51
2023/12/24 08:57:08;;;;;;;1.63;1.00;;;7.90;99.90;;;;;;5010551;28;20121;-53
2023/12/24 08:59:34;;;;;;;1.40;0.80;;;7.90;99.90;;;;;;5006920;28;20084;-49
2023/12/24 09:02:01;;;;;;;2.85;1.10;;;7.80;99.90;;;;;;5006745;28;20127;-54
2023/12/24 09:04:28;;;;;;;1.60;0.80;;;7.80;99.90;;;;;;5007299;28;20038;-55
2023/12/24 09:06:55;;;;;;;1.92;0.90;;;7.80;99.90;;;;;;5013001;28;20499;-52
2023/12/24 09:09:22;;;;;;;3.28;1.35;;;7.80;99.90;;;;;;5013812;28;20119;-50
2023/12/24 09:11:50;;;;;;;1.95;0.90;;;7.80;99.90;;;;;;5006733;28;20033;-49
2023/12/24 09:14:17;;;;;;;1.98;1.10;;;7.80;99.90;;;;;;5040461;28;20487;-51
2023/12/24 09:16:45;;;;;;;2.13;0.93;;;7.80;99.90;;;;;;4998152;28;20050;-49
2023/12/24 09:19:12;;;;;;;2.30;1.00;;;7.80;99.90;;;;;;5007156;28;20046;-50
2023/12/24 09:21:39;;;;;;;3.70;1.00;;;7.80;99.90;;;;;;5007333;28;20383;-48
2023/12/24 09:24:07;;;;;;;2.03;0.88;;;7.90;99.90;;;;;;5006262;28;20243;-51
2023/12/24 09:26:34;;;;;;;1.98;1.00;;;7.80;99.90;;;;;;5010086;28;20041;-52
2023/12/24 09:29:01;;;;;;;2.25;1.25;;;7.90;99.90;;;;;;5008590;28;20535;-57
2023/12/24 09:31:28;;;;;;;1.95;1.00;;;7.80;99.90;;;;;;5011402;28;20046;-53
2023/12/24 09:33:55;;;;;;;1.48;0.80;;;7.80;99.90;;;;;;5007596;28;20092;-52
2023/12/24 09:36:22;;;;;;;3.20;1.40;;;7.70;99.90;;;;;;5007336;28;20053;-52
2023/12/24 09:38:49;;;;;;;4.18;1.42;;;7.80;99.90;;;;;;5007721;28;20129;-52
2023/12/24 09:41:18;;;;;;;3.47;1.38;;;7.80;99.90;;;;;;5007314;28;20042;-54
2023/12/24 09:43:45;;;;;;;1.65;1.00;;;7.80;99.90;;;;;;5011700;28;20073;-56
2023/12/24 09:46:12;;;;;;;1.95;1.13;;;7.80;99.90;;;;;;5007239;28;20046;-53
2023/12/24 09:48:39;;;;;;;1.48;1.00;;;7.80;99.90;;;;;;5008627;28;20302;-48
2023/12/24 09:51:08;;;;;;;3.25;1.30;;;7.80;99.90;;;;;;5007330;28;20097;-54
2023/12/24 09:53:35;;;;;;;2.53;1.08;;;7.80;99.90;;;;;;5008440;28;20103;-47
2023/12/24 09:56:02;;;;;;;2.55;1.27;;;7.80;99.90;;;;;;5008658;28;20112;-49
2023/12/24 09:58:30;;;;;;;4.25;1.42;;;7.80;99.90;;;;;;5011195;28;20049;-53
2023/12/24 10:00:57;;;;;;;2.65;1.30;;;7.70;99.90;;;;;;5003378;28;20150;-50
2023/12/24 10:03:24;;;;;;;1.38;0.90;;;7.70;99.90;;;;;;5006685;28;20096;-51
2023/12/24 10:06:01;;;;;;;2.53;0.82;;;7.70;99.90;;;;;;5011147;28;20037;-51
2023/12/24 10:08:33;;;;;;;2.88;1.27;;;7.70;99.90;;;;;;5007267;28;20088;-53
2023/12/24 10:11:15;;;;;;;2.05;1.02;;;7.80;99.90;;;;;;5007071;28;20048;-53
2023/12/24 10:13:44;;;;;;;2.30;1.20;;;7.80;99.90;;;;;;5009473;28;20119;-58
2023/12/24 10:16:11;;;;;;;3.00;1.20;;;7.90;99.90;;;;;;5010606;28;20499;-52
2023/12/24 10:18:53;;;;;;;2.63;0.90;;;7.90;99.90;;;;;;5018243;28;20041;-47
2023/12/24 10:21:21;;;;;;;2.10;0.95;;;7.90;99.90;;;;;;5011025;28;20057;-48
2023/12/24 10:23:48;;;;;;;2.00;0.80;;;7.90;99.90;;;;;;5011802;28;20417;-52
2023/12/24 10:26:15;;;;;;;2.33;0.80;;;7.90;99.90;;;;;;5010995;28;20053;-51
2023/12/24 10:28:48;;;;;;;3.78;1.25;;;7.90;99.90;;;;;;5021937;28;20110;-48
2023/12/24 10:31:19;;;;;;;1.27;0.98;;;7.90;99.90;;;;;;5017561;28;20479;-50
2023/12/24 10:33:46;;;;;;;1.27;0.80;;;7.90;99.90;;;;;;5013740;28;20137;-53
2023/12/24 10:36:13;;;;;;;2.30;1.17;;;7.90;99.90;;;;;;5010229;28;20080;-56
2023/12/24 10:38:40;;;;;;;1.85;1.00;;;8.00;99.90;;;;;;5016118;28;20521;-49
2023/12/24 10:41:07;;;;;;;3.25;0.90;;;8.00;99.90;;;;;;5015134;28;20049;-55
2023/12/24 10:43:35;;;;;;;2.25;1.23;;;8.00;99.90;;;;;;5015826;28;20037;-48
2023/12/24 10:46:02;;;;;;;2.15;1.00;;;8.10;99.90;;;;;;5015733;28;20423;-56
2023/12/24 10:48:29;;;;;;;2.03;0.80;;;8.10;99.90;;;;;;5015169;28;20034;-54
2023/12/24 10:50:56;;;;;;;1.38;0.90;;;8.10;99.90;;;;;;5009381;28;20128;-50
2023/12/24 10:53:23;;;;;;;1.42;0.90;;;8.10;99.90;;;;;;5009567;28;20034;-52
2023/12/24 10:56:16;;;;;;;1.40;0.70;;;8.10;99.90;;;;;;5008584;28;20521;-49
2023/12/24 10:59:19;;;;;;;2.00;1.20;;;8.10;99.90;;;;;;5008006;28;20034;-54
2023/12/24 11:01:48;;;;;;;2.55;1.17;;;8.20;99.90;;;;;;5008703;28;20057;-54
2023/12/24 11:04:44;;;;;;;2.00;1.00;;;8.20;99.90;;;;;;5009281;28;20048;-52
2023/12/24 11:07:33;;;;;;;3.50;1.00;;;8.20;99.90;;;;;;5007522;28;20518;-55
2023/12/24 11:10:04;;;;;;;1.50;0.85;;;8.30;99.90;;;;;;5004857;28;20092;-52
2023/12/24 11:12:36;;;;;;;3.17;1.00;;;8.30;99.90;;;;;;5006043;28;20489;-50
2023/12/24 11:15:04;;;;;;;1.10;0.90;;;8.30;99.90;;;;;;5006803;28;20073;-52
2023/12/24 11:17:37;;;;;;;1.90;0.88;;;8.40;99.90;;;;;;5007915;28;20194;-48
2023/12/24 11:20:24;;;;;;;1.77;0.90;;;8.40;99.90;;;;;;5008348;28;20129;-56
2023/12/24 11:23:11;;;;;;;2.22;0.98;;;8.50;99.90;;;;;;5004567;28;20149;-58
2023/12/24 11:25:47;;;;;;;3.33;1.25;;;8.50;99.90;;;;;;5008099;28;20057;-55
2023/12/24 11:28:23;;;;;;;2.25;0.90;;;8.50;99.90;;;;;;5010003;28;20073;-55
2023/12/24 11:30:51;;;;;;;2.30;0.77;;;8.50;99.90;;;;;;5004355;28;20047;-52
2023/12/24 11:33:27;;;;;;;2.80;1.02;;;8.60;99.90;;;;;;5005244;28;20045;-50
2023/12/24 11:35:56;;;;;;;0.88;0.70;;;8.60;99.90;;;;;;5006885;28;20129;-51
2023/12/24 11:38:35;;;;;;;2.03;0.90;;;8.60;99.90;;;;;;5008777;28;20092;-54
2023/12/24 11:41:07;;;;;;;1.33;0.85;;;8.70;99.90;;;;;;5012836;28;20147;-53
2023/12/24 11:43:35;;;;;;;1.67;0.90;;;8.70;99.90;;;;;;5009460;28;20153;-50
2023/12/24 11:46:02;;;;;;;3.75;1.55;;;8.70;99.90;;;;;;5007891;28;20462;-54
2023/12/24 11:48:31;;;;;;;2.40;0.80;;;8.70;99.90;;;;;;5008668;28;20034;-51
2023/12/24 11:51:10;;;;;;;1.13;0.70;;;8.80;99.90;;;;;;5008207;28;20050;-53
2023/12/24 11:53:41;;;;;;;1.60;0.73;;;8.80;99.90;;;;;;5007481;28;20100;-50
2023/12/24 11:56:13;;;;;;;1.27;0.80;;;8.80;99.90;;;;;;5007920;28;20056;-51
2023/12/24 11:58:42;;;;;;;3.75;1.02;;;8.90;99.90;;;;;;5000160;28;20631;-50
2023/12/24 12:01:09;;;;;;;1.98;0.90;;;8.90;99.90;;;;;;5008505;28;20045;-55
2023/12/24 12:03:36;;;;;;;2.72;0.80;;;8.90;99.90;;;;;;5009778;28;20463;-55
2023/12/24 12:06:04;;;;;;;1.70;0.88;;;9.00;99.90;;;;;;5008013;28;20046;-50
2023/12/24 12:08:32;;;;;;;1.85;0.80;;;9.00;99.90;;;;;;5008491;28;20423;-54
2023/12/24 12:10:59;;;;;;;1.75;0.77;;;9.00;99.90;;;;;;5008495;28;20283;-55
2023/12/24 12:13:26;;;;;;;1.92;0.80;;;9.00;99.90;;;;;;5007631;28;20041;-50
2023/12/24 12:15:54;;;;;;;1.30;0.75;;;9.00;99.90;;;;;;5012087;28;20045;-54
2023/12/24 12:18:21;;;;;;;0.63;0.60;;;9.00;99.90;;;;;;5009382;28;20046;-55
2023/12/24 12:20:48;;;;;;;1.33;0.60;;;9.00;99.90;;;;;;5008215;28;20518;-55
2023/12/24 12:23:18;;;;;;;1.48;0.70;;;9.10;99.90;;;;;;5011152;28;20056;-52
2023/12/24 12:25:45;;;;;;;1.20;0.60;;;9.20;99.90;;;;;;5009620;28;20100;-57
2023/12/24 12:28:13;;;;;;;0.75;0.60;;;9.20;99.90;;;;;;5007881;28;20507;-50
2023/12/24 12:30:41;;;;;;;1.70;0.77;;;9.20;99.90;;;;;;5012300;28;20422;-52
2023/12/24 12:33:08;;;;;;;0.88;0.57;;;9.20;99.90;;;;;;5008162;28;20042;-51
2023/12/24 12:35:35;;;;;;;1.15;0.60;;;9.30;99.90;;;;;;5012483;28;20037;-54
2023/12/24 12:38:03;;;;;;;1.13;0.70;;;9.30;99.90;;;;;;5005778;28;20054;-52
2023/12/24 12:40:30;;;;;;;0.85;0.55;;;9.30;99.90;;;;;;5010117;28;20129;-51
2023/12/24 12:43:08;;;;;;;0.93;0.50;;;9.40;99.90;;;;;;5010348;28;20045;-54
2023/12/24 12:45:35;;;;;;;0.70;0.60;;;9.40;99.90;;;;;;5008029;28;20422;-50
2023/12/24 12:48:03;;;;;;;0.65;0.50;;;9.40;99.90;;;;;;5007847;28;20050;-51
2023/12/24 12:50:31;;;;;;;1.45;0.90;;;9.40;99.90;;;;;;5011215;28;20313;-56
2023/12/24 12:52:58;;;;;;;1.27;0.73;;;9.40;99.90;;;;;;5014739;28;20100;-55
2023/12/24 12:55:25;;;;;;;1.00;0.60;;;9.40;99.90;;;;;;5007532;28;20480;-58
2023/12/24 12:57:52;;;;;;;1.13;0.68;;;9.40;99.90;;;;;;5010532;28;20058;-51
2023/12/24 13:00:23;;;;;;;1.13;0.52;;;9.40;99.90;;;;;;5007954;28;20335;-49
2023/12/24 13:02:51;;;;;;;1.30;0.65;;;9.40;99.90;;;;;;5008318;28;20379;-53